createdAt,value
2023-01-18T00:01:26.691Z,14.17
2023-01-18T00:03:55.804Z,8.33
2023-01-18T00:06:28.661Z,10.07
2023-01-18T00:08:57.378Z,11.73
2023-01-18T00:11:27.503Z,11.83
2023-01-18T00:13:56.818Z,13.67
2023-01-18T00:16:25.943Z,10.20
2023-01-18T00:18:56.934Z,9.60
2023-01-18T00:21:28.045Z,11.67
2023-01-18T00:23:56.943Z,10.17
2023-01-18T00:26:27.469Z,10.13
2023-01-18T00:28:57.406Z,11.00
2023-01-18T00:31:26.657Z,10.90
2023-01-18T00:33:55.553Z,10.77
2023-01-18T00:36:24.601Z,9.97
2023-01-18T00:38:53.861Z,10.70
2023-01-18T00:41:23.559Z,13.77
2023-01-18T00:43:52.658Z,13.80
2023-01-18T00:46:24.151Z,12.83
2023-01-18T00:48:53.710Z,11.37
2023-01-18T00:51:24.351Z,13.30
2023-01-18T00:53:52.713Z,12.03
2023-01-18T00:56:23.706Z,13.80
2023-01-18T00:58:53.413Z,14.80
2023-01-18T01:01:22.247Z,12.30
2023-01-18T01:04:08.975Z,11.60
2023-01-18T01:06:47.371Z,9.73
2023-01-18T01:09:18.537Z,8.67
2023-01-18T01:12:02.526Z,9.37
2023-01-18T01:14:50.357Z,11.43
2023-01-18T01:17:36.868Z,10.27
2023-01-18T01:20:23.453Z,11.37
2023-01-18T01:23:09.767Z,10.13
2023-01-18T01:25:56.665Z,9.83
2023-01-18T01:28:25.990Z,10.13
2023-01-18T01:31:00.410Z,8.37
2023-01-18T01:33:30.028Z,9.07
2023-01-18T01:36:00.019Z,7.13
2023-01-18T01:38:29.361Z,9.17
2023-01-18T01:41:00.436Z,9.20
2023-01-18T01:43:39.815Z,8.13
2023-01-18T01:46:19.735Z,11.23
2023-01-18T01:48:49.228Z,11.30
2023-01-18T01:51:21.295Z,9.43
2023-01-18T01:53:51.270Z,8.57
2023-01-18T01:56:21.683Z,10.43
2023-01-18T01:58:56.639Z,11.53
2023-01-18T02:01:29.020Z,10.20
2023-01-18T02:04:01.293Z,9.57
2023-01-18T02:06:35.029Z,9.60
2023-01-18T02:09:08.012Z,7.60
2023-01-18T02:11:36.835Z,8.83
2023-01-18T02:14:09.671Z,7.57
2023-01-18T02:16:51.841Z,8.70
2023-01-18T02:19:59.677Z,8.27
2023-01-18T02:22:42.210Z,8.50
2023-01-18T02:25:32.153Z,8.23
2023-01-18T02:28:12.776Z,11.77
2023-01-18T02:30:44.967Z,8.30
2023-01-18T02:33:19.724Z,7.43
2023-01-18T02:35:52.592Z,8.47
2023-01-18T02:38:25.359Z,8.20
2023-01-18T02:41:14.144Z,7.23
2023-01-18T02:44:03.972Z,7.13
2023-01-18T02:46:34.821Z,8.60
2023-01-18T02:49:08.858Z,7.63
2023-01-18T02:51:37.985Z,7.97
2023-01-18T02:54:10.021Z,8.57
2023-01-18T02:56:42.410Z,8.47
2023-01-18T02:59:18.114Z,7.33
2023-01-18T03:01:50.043Z,7.77
2023-01-18T03:04:22.935Z,7.80
2023-01-18T03:06:57.485Z,7.73
2023-01-18T03:09:27.655Z,8.93
2023-01-18T03:12:02.878Z,7.40
2023-01-18T03:14:42.719Z,7.17
2023-01-18T03:17:19.104Z,8.83
2023-01-18T03:20:08.734Z,7.57
2023-01-18T03:22:59.250Z,9.60
2023-01-18T03:25:31.239Z,7.27
2023-01-18T03:28:22.803Z,9.33
2023-01-18T03:31:13.090Z,7.97
2023-01-18T03:33:48.537Z,7.37
2023-01-18T03:36:21.648Z,7.60
2023-01-18T03:38:56.228Z,8.97
2023-01-18T03:41:28.416Z,8.83
2023-01-18T03:44:04.611Z,9.00
2023-01-18T03:46:35.924Z,8.30
2023-01-18T03:49:04.647Z,8.57
2023-01-18T03:51:48.551Z,7.23
2023-01-18T03:54:25.022Z,7.13
2023-01-18T03:57:00.303Z,8.60
2023-01-18T03:59:35.419Z,7.90
2023-01-18T04:02:07.659Z,8.50
2023-01-18T04:04:36.493Z,7.57
2023-01-18T04:07:05.019Z,7.73
2023-01-18T04:09:34.566Z,7.20
2023-01-18T04:12:03.272Z,8.23
2023-01-18T04:14:31.960Z,7.90
2023-01-18T04:17:00.911Z,7.23
2023-01-18T04:19:30.659Z,8.23
2023-01-18T04:22:00.364Z,6.67
2023-01-18T04:24:29.527Z,8.67
2023-01-18T04:26:58.314Z,7.70
2023-01-18T04:29:29.137Z,9.60
2023-01-18T04:31:57.614Z,10.67
2023-01-18T04:34:27.857Z,9.03
2023-01-18T04:36:58.233Z,11.57
2023-01-18T04:39:26.918Z,8.43
2023-01-18T04:41:59.179Z,6.90
2023-01-18T04:44:27.673Z,9.30
2023-01-18T04:46:56.210Z,9.40
2023-01-18T04:49:24.778Z,7.90
2023-01-18T04:51:53.139Z,13.03
2023-01-18T04:54:22.978Z,10.73
2023-01-18T04:56:52.211Z,9.00
2023-01-18T04:59:20.867Z,8.33
2023-01-18T05:01:49.953Z,8.93
2023-01-18T05:04:19.610Z,7.63
2023-01-18T05:06:49.421Z,8.17
2023-01-18T05:09:18.819Z,7.53
2023-01-18T05:11:48.542Z,8.43
2023-01-18T05:14:17.425Z,8.20
2023-01-18T05:16:45.813Z,11.60
2023-01-18T05:19:14.470Z,11.70
2023-01-18T05:21:42.938Z,8.67
2023-01-18T05:24:11.324Z,7.80
2023-01-18T05:26:40.114Z,8.97
2023-01-18T05:29:09.802Z,9.87
2023-01-18T05:31:39.021Z,11.23
2023-01-18T05:34:07.630Z,10.50
2023-01-18T05:36:37.449Z,13.90
2023-01-18T05:39:05.879Z,12.40
2023-01-18T05:41:34.728Z,8.13
2023-01-18T05:44:03.201Z,6.13
2023-01-18T05:46:33.274Z,7.77
2023-01-18T05:49:01.593Z,6.40
2023-01-18T05:51:30.969Z,8.43
2023-01-18T05:53:59.462Z,6.90
2023-01-18T05:56:28.461Z,8.77
2023-01-18T05:58:56.801Z,14.30
2023-01-18T06:01:26.252Z,13.07
2023-01-18T06:03:56.677Z,9.67
2023-01-18T06:06:25.554Z,11.03
2023-01-18T06:08:54.378Z,9.13
2023-01-18T06:11:22.741Z,9.07
2023-01-18T06:13:52.560Z,7.43
2023-01-18T06:16:21.162Z,8.07
2023-01-18T06:18:49.526Z,11.33
2023-01-18T06:21:19.249Z,12.33
2023-01-18T06:23:48.633Z,10.53
2023-01-18T06:26:17.431Z,10.50
2023-01-18T06:28:46.103Z,9.23
2023-01-18T06:31:14.986Z,8.97
2023-01-18T06:33:43.306Z,8.90
2023-01-18T06:36:12.582Z,12.10
2023-01-18T06:38:42.390Z,10.60
2023-01-18T06:41:11.791Z,9.77
2023-01-18T06:43:40.261Z,8.57
2023-01-18T06:46:09.709Z,11.77
2023-01-18T06:48:39.351Z,11.37
2023-01-18T06:51:08.819Z,10.43
2023-01-18T06:53:38.046Z,10.07
2023-01-18T06:56:10.728Z,9.13
2023-01-18T06:58:39.100Z,10.80
2023-01-18T07:01:08.392Z,9.10
2023-01-18T07:03:36.944Z,9.43
2023-01-18T07:06:06.339Z,11.57
2023-01-18T07:08:35.831Z,8.70
2023-01-18T07:11:10.029Z,11.07
2023-01-18T07:13:40.737Z,8.93
2023-01-18T07:16:18.082Z,9.20
2023-01-18T07:18:49.004Z,9.70
2023-01-18T07:21:19.228Z,9.33
2023-01-18T07:23:48.240Z,8.47
2023-01-18T07:26:18.665Z,9.13
2023-01-18T07:28:49.004Z,9.27
2023-01-18T07:31:18.675Z,8.67
2023-01-18T07:33:47.078Z,7.83
2023-01-18T07:36:15.497Z,7.83
2023-01-18T07:38:45.109Z,11.33
2023-01-18T07:41:15.703Z,10.80
2023-01-18T07:43:47.621Z,9.70
2023-01-18T07:46:18.532Z,8.23
2023-01-18T07:48:47.871Z,8.53
2023-01-18T07:51:16.801Z,8.33
2023-01-18T07:53:45.953Z,8.67
2023-01-18T07:56:16.615Z,8.37
2023-01-18T07:58:47.481Z,9.73
2023-01-18T08:01:19.071Z,10.50
2023-01-18T08:03:49.252Z,9.87
2023-01-18T08:06:22.329Z,7.47
2023-01-18T08:08:51.127Z,7.63
2023-01-18T08:11:20.259Z,8.77
2023-01-18T08:13:52.980Z,8.67
2023-01-18T08:16:21.847Z,11.90
2023-01-18T08:18:50.360Z,11.50
2023-01-18T08:21:19.306Z,8.40
2023-01-18T08:23:48.111Z,7.20
2023-01-18T08:26:16.526Z,7.03
2023-01-18T08:28:45.957Z,7.83
2023-01-18T08:31:17.983Z,10.57
2023-01-18T08:33:49.652Z,6.87
2023-01-18T08:36:20.735Z,8.97
2023-01-18T08:38:50.332Z,8.13
2023-01-18T08:41:20.479Z,8.60
2023-01-18T08:43:50.748Z,7.87
2023-01-18T08:46:21.960Z,7.20
2023-01-18T08:48:51.275Z,7.77
2023-01-18T08:51:23.731Z,8.07
2023-01-18T08:53:53.542Z,9.73
2023-01-18T08:56:22.877Z,8.00
2023-01-18T08:58:52.175Z,8.13
2023-01-18T09:01:23.989Z,15.80
2023-01-18T09:03:55.206Z,14.90
2023-01-18T09:06:23.676Z,11.43
2023-01-18T09:08:52.323Z,13.73
2023-01-18T09:11:20.939Z,10.50
2023-01-18T09:14:00.209Z,11.43
2023-01-18T09:16:32.624Z,8.57
2023-01-18T09:19:01.455Z,6.93
2023-01-18T09:21:30.921Z,9.20
2023-01-18T09:24:00.019Z,10.17
2023-01-18T09:26:30.369Z,6.27
2023-01-18T09:28:59.867Z,6.97
2023-01-18T09:31:28.978Z,6.97
2023-01-18T09:34:17.692Z,6.13
2023-01-18T09:36:47.776Z,5.67
2023-01-18T09:39:16.277Z,7.03
2023-01-18T09:41:50.624Z,6.27
2023-01-18T09:44:28.706Z,5.70
2023-01-18T09:47:01.453Z,6.43
2023-01-18T09:49:37.835Z,4.40
2023-01-18T09:52:19.492Z,5.40
2023-01-18T09:54:55.448Z,6.13
2023-01-18T09:57:45.098Z,4.97
2023-01-18T10:00:22.784Z,4.10
2023-01-18T10:02:57.072Z,5.17
2023-01-18T10:05:31.930Z,5.13
2023-01-18T10:08:08.405Z,6.53
2023-01-18T10:10:39.475Z,7.87
2023-01-18T10:13:22.336Z,7.80
2023-01-18T10:15:51.614Z,4.93
2023-01-18T10:18:20.466Z,5.80
2023-01-18T10:20:55.948Z,4.13
2023-01-18T10:23:29.725Z,3.67
2023-01-18T10:26:04.183Z,4.50
2023-01-18T10:28:45.449Z,4.83
2023-01-18T10:31:35.615Z,6.40
2023-01-18T10:34:13.776Z,5.80
2023-01-18T10:36:48.992Z,5.63
2023-01-18T10:39:31.168Z,4.83
2023-01-18T10:42:05.256Z,4.77
2023-01-18T10:44:35.765Z,5.27
2023-01-18T10:47:04.412Z,5.07
2023-01-18T10:49:36.688Z,3.90
2023-01-18T10:52:27.312Z,4.20
2023-01-18T10:55:02.120Z,4.53
2023-01-18T10:57:33.266Z,4.87
2023-01-18T11:00:02.711Z,3.60
2023-01-18T11:02:36.315Z,3.13
2023-01-18T11:05:21.906Z,3.43
2023-01-18T11:08:12.326Z,3.50
2023-01-18T11:10:41.907Z,7.27
2023-01-18T11:13:26.737Z,5.70
2023-01-18T11:16:06.996Z,9.80
2023-01-18T11:18:36.660Z,9.70
2023-01-18T11:21:10.682Z,4.23
2023-01-18T11:23:43.751Z,4.10
2023-01-18T11:26:16.066Z,4.10
2023-01-18T11:28:49.578Z,3.33
2023-01-18T11:31:22.604Z,4.23
2023-01-18T11:33:53.651Z,4.87
2023-01-18T11:36:35.728Z,5.40
2023-01-18T11:39:29.347Z,5.53
2023-01-18T11:42:23.742Z,5.53
2023-01-18T11:45:02.449Z,5.70
2023-01-18T11:47:41.056Z,8.07
2023-01-18T11:50:28.221Z,7.07
2023-01-18T11:53:06.063Z,6.87
2023-01-18T11:55:40.927Z,8.43
2023-01-18T11:58:22.709Z,7.13
2023-01-18T12:01:00.469Z,6.70
2023-01-18T12:03:47.659Z,5.60
2023-01-18T12:06:27.593Z,6.70
2023-01-18T12:09:08.194Z,7.33
2023-01-18T12:11:50.571Z,8.70
2023-01-18T12:14:45.207Z,7.57
2023-01-18T12:17:27.537Z,8.00
2023-01-18T12:20:11.194Z,8.73
2023-01-18T12:23:01.258Z,7.73
2023-01-18T12:26:00.191Z,8.47
2023-01-18T12:28:52.718Z,9.57
2023-01-18T12:31:35.922Z,14.57
2023-01-18T12:34:13.984Z,9.67
2023-01-18T12:37:10.517Z,9.07
2023-01-18T12:39:54.228Z,11.80
2023-01-18T12:42:32.304Z,10.43
2023-01-18T12:45:16.045Z,11.80
2023-01-18T12:47:56.153Z,12.00
2023-01-18T12:50:29.495Z,11.33
2023-01-18T12:53:00.967Z,11.20
2023-01-18T12:55:34.153Z,11.00
2023-01-18T12:58:03.957Z,9.67
2023-01-18T13:00:38.515Z,9.50
2023-01-18T13:03:15.729Z,9.17
2023-01-18T13:05:52.558Z,8.87
2023-01-18T13:08:35.143Z,9.40
2023-01-18T13:11:10.352Z,8.50
2023-01-18T13:13:41.702Z,8.10
2023-01-18T13:16:25.327Z,7.47
2023-01-18T13:19:00.595Z,8.07
2023-01-18T13:21:45.555Z,6.93
2023-01-18T13:24:25.232Z,5.70
2023-01-18T13:26:54.295Z,5.80
2023-01-18T13:29:29.657Z,7.00
2023-01-18T13:32:00.101Z,5.90
2023-01-18T13:34:32.489Z,5.77
2023-01-18T13:37:14.361Z,5.93
2023-01-18T13:39:48.945Z,4.90
2023-01-18T13:42:41.166Z,5.10
2023-01-18T13:45:20.229Z,4.20
2023-01-18T13:48:00.432Z,4.33
2023-01-18T13:50:49.472Z,5.67
2023-01-18T13:53:25.589Z,7.10
2023-01-18T13:56:35.429Z,4.63
2023-01-18T13:59:15.490Z,4.70
2023-01-18T14:01:48.993Z,6.03
2023-01-18T14:04:30.729Z,5.27
2023-01-18T14:07:03.642Z,7.60
2023-01-18T14:09:44.365Z,8.23
2023-01-18T14:12:14.820Z,6.87
2023-01-18T14:14:57.298Z,11.63
2023-01-18T14:17:27.721Z,5.27
2023-01-18T14:20:30.494Z,5.73
2023-01-18T14:23:15.752Z,10.57
2023-01-18T14:25:58.449Z,6.57
2023-01-18T14:28:36.285Z,11.77
2023-01-18T14:31:08.738Z,11.17
2023-01-18T14:33:40.664Z,8.97
2023-01-18T14:36:21.659Z,7.80
2023-01-18T14:39:10.082Z,16.57
2023-01-18T14:41:39.250Z,21.93
2023-01-18T14:44:17.056Z,18.77
2023-01-18T14:46:51.151Z,11.67
2023-01-18T14:49:24.193Z,11.30
2023-01-18T14:51:54.815Z,10.03
2023-01-18T14:54:26.823Z,8.50
2023-01-18T14:57:02.685Z,11.17
2023-01-18T14:59:33.678Z,9.63
2023-01-18T15:02:03.971Z,12.23
2023-01-18T15:04:36.664Z,10.63
2023-01-18T15:07:10.285Z,12.20
2023-01-18T15:09:42.710Z,11.87
2023-01-18T15:12:14.426Z,7.50
2023-01-18T15:14:46.083Z,9.63
2023-01-18T15:17:21.833Z,8.17
2023-01-18T15:19:54.812Z,8.40
2023-01-18T15:22:30.459Z,8.50
2023-01-18T15:25:02.161Z,7.03
2023-01-18T15:27:33.072Z,9.77
2023-01-18T15:30:03.108Z,6.27
2023-01-18T15:32:34.538Z,6.40
2023-01-18T15:35:05.840Z,11.20
2023-01-18T15:37:37.756Z,6.70
2023-01-18T15:40:25.847Z,6.80
2023-01-18T15:43:01.282Z,6.77
2023-01-18T15:45:33.577Z,8.90
2023-01-18T15:48:07.568Z,6.67
2023-01-18T15:50:40.225Z,8.70
2023-01-18T15:53:20.025Z,19.17
2023-01-18T15:55:52.588Z,6.43
2023-01-18T15:58:31.462Z,9.17
2023-01-18T16:01:03.043Z,7.93
2023-01-18T16:03:36.303Z,9.13
2023-01-18T16:06:12.806Z,8.23
2023-01-18T16:09:00.682Z,7.70
2023-01-18T16:11:34.069Z,11.90
2023-01-18T16:14:07.991Z,8.47
2023-01-18T16:16:40.174Z,6.73
2023-01-18T16:19:18.620Z,7.53
2023-01-18T16:21:50.990Z,7.20
2023-01-18T16:24:42.282Z,10.13
2023-01-18T16:27:12.532Z,13.37
2023-01-18T16:29:45.074Z,14.63
2023-01-18T16:32:19.326Z,8.70
2023-01-18T16:34:49.396Z,19.43
2023-01-18T16:37:18.139Z,25.17
2023-01-18T16:39:48.263Z,20.87
2023-01-18T16:42:19.867Z,14.73
2023-01-18T16:44:50.408Z,9.27
2023-01-18T16:47:19.900Z,8.00
2023-01-18T16:49:48.361Z,10.43
2023-01-18T16:52:17.724Z,10.97
2023-01-18T16:54:47.956Z,6.97
2023-01-18T16:57:21.756Z,8.53
2023-01-18T16:59:51.402Z,10.37
2023-01-18T17:02:19.915Z,9.93
2023-01-18T17:04:51.239Z,8.93
2023-01-18T17:07:19.576Z,9.73
2023-01-18T17:09:50.210Z,10.73
2023-01-18T17:12:19.678Z,9.60
2023-01-18T17:14:48.014Z,11.83
2023-01-18T17:17:16.353Z,11.93
2023-01-18T17:19:45.231Z,9.63
2023-01-18T17:22:13.658Z,9.47
2023-01-18T17:24:42.087Z,12.97
2023-01-18T17:27:15.000Z,9.87
2023-01-18T17:29:43.315Z,9.87
2023-01-18T17:32:13.487Z,12.33
2023-01-18T17:34:42.854Z,10.00
2023-01-18T17:37:12.215Z,14.07
2023-01-18T17:39:50.129Z,7.80
2023-01-18T17:42:31.157Z,8.50
2023-01-18T17:45:04.220Z,9.17
2023-01-18T17:47:34.513Z,8.33
2023-01-18T17:50:09.109Z,8.63
2023-01-18T17:52:40.244Z,9.17
2023-01-18T17:55:13.724Z,7.77
2023-01-18T17:57:45.754Z,7.87
2023-01-18T18:00:16.234Z,10.13
2023-01-18T18:02:46.252Z,11.40
2023-01-18T18:05:16.087Z,10.03
2023-01-18T18:07:44.510Z,8.47
2023-01-18T18:10:14.012Z,8.90
2023-01-18T18:12:44.728Z,9.47
2023-01-18T18:15:13.400Z,13.53
2023-01-18T18:17:42.259Z,11.97
2023-01-18T18:20:12.225Z,10.37
2023-01-18T18:22:41.309Z,10.13
2023-01-18T18:25:11.555Z,14.07
2023-01-18T18:27:47.619Z,10.27
2023-01-18T18:30:19.220Z,10.97
2023-01-18T18:32:47.982Z,8.83
2023-01-18T18:35:25.575Z,9.07
2023-01-18T18:37:55.876Z,7.70
2023-01-18T18:40:24.704Z,8.60
2023-01-18T18:43:01.895Z,8.30
2023-01-18T18:45:33.297Z,8.57
2023-01-18T18:48:01.995Z,7.87
2023-01-18T18:50:31.773Z,8.07
2023-01-18T18:53:00.459Z,8.00
2023-01-18T18:55:29.153Z,10.57
2023-01-18T18:57:57.816Z,9.47
2023-01-18T19:00:27.372Z,8.57
2023-01-18T19:03:00.994Z,11.50
2023-01-18T19:05:31.354Z,11.17
2023-01-18T19:08:00.264Z,8.43
2023-01-18T19:10:30.385Z,10.30
2023-01-18T19:12:59.600Z,9.67
2023-01-18T19:15:28.482Z,8.77
2023-01-18T19:17:58.026Z,8.03
2023-01-18T19:20:28.143Z,11.77
2023-01-18T19:22:56.928Z,11.73
2023-01-18T19:25:26.324Z,12.27
2023-01-18T19:27:55.022Z,10.00
2023-01-18T19:30:24.133Z,9.93
2023-01-18T19:32:54.125Z,11.67
2023-01-18T19:35:22.995Z,12.70
2023-01-18T19:37:52.631Z,13.43
2023-01-18T19:40:21.633Z,14.37
2023-01-18T19:42:56.217Z,13.90
2023-01-18T19:45:28.112Z,13.23
2023-01-18T19:47:59.613Z,10.97
2023-01-18T19:50:30.109Z,11.90
2023-01-18T19:53:00.292Z,11.57
2023-01-18T19:55:29.222Z,13.73
2023-01-18T19:57:59.815Z,12.30
2023-01-18T20:00:30.905Z,11.77
2023-01-18T20:03:00.177Z,12.83
2023-01-18T20:05:28.998Z,13.57
2023-01-18T20:07:57.799Z,12.47
2023-01-18T20:10:27.930Z,12.77
2023-01-18T20:12:56.250Z,22.40
2023-01-18T20:15:25.220Z,26.03
2023-01-18T20:17:53.596Z,11.63
2023-01-18T20:20:31.901Z,12.63
2023-01-18T20:23:04.084Z,14.10
2023-01-18T20:25:34.897Z,14.43
2023-01-18T20:28:03.293Z,17.67
2023-01-18T20:30:32.239Z,21.53
2023-01-18T20:33:01.958Z,18.03
2023-01-18T20:35:30.748Z,12.23
2023-01-18T20:37:59.128Z,13.93
2023-01-18T20:40:27.476Z,14.30
2023-01-18T20:42:58.141Z,13.97
2023-01-18T20:45:26.971Z,11.60
2023-01-18T20:47:55.646Z,12.87
2023-01-18T20:50:24.337Z,13.57
2023-01-18T20:52:53.957Z,13.87
2023-01-18T20:55:23.993Z,13.60
2023-01-18T20:57:54.513Z,14.23
2023-01-18T21:00:24.857Z,15.47
2023-01-18T21:02:53.257Z,16.07
2023-01-18T21:05:22.736Z,14.73
2023-01-18T21:07:51.038Z,15.00
2023-01-18T21:10:19.605Z,17.20
2023-01-18T21:12:49.189Z,22.13
2023-01-18T21:15:17.755Z,14.43
2023-01-18T21:17:47.835Z,15.63
2023-01-18T21:20:16.781Z,15.40
2023-01-18T21:22:46.925Z,20.17
2023-01-18T21:25:15.748Z,23.73
2023-01-18T21:27:44.563Z,15.80
2023-01-18T21:30:15.535Z,14.73
2023-01-18T21:32:44.194Z,16.03
2023-01-18T21:35:14.305Z,17.17
2023-01-18T21:37:42.902Z,14.47
2023-01-18T21:40:12.572Z,17.80
2023-01-18T21:42:59.829Z,15.13
2023-01-18T21:45:46.298Z,15.40
2023-01-18T21:48:14.714Z,16.07
2023-01-18T21:51:17.429Z,14.93
2023-01-18T21:54:03.597Z,15.87
2023-01-18T21:56:32.331Z,17.30
2023-01-18T21:59:01.299Z,18.17
2023-01-18T22:01:34.142Z,17.03
2023-01-18T22:04:21.432Z,16.20
2023-01-18T22:06:53.346Z,16.47
2023-01-18T22:09:22.434Z,19.23
2023-01-18T22:11:51.619Z,16.77
2023-01-18T22:14:20.377Z,18.97
2023-01-18T22:16:49.020Z,17.73
2023-01-18T22:19:20.242Z,16.90
2023-01-18T22:21:49.775Z,18.63
2023-01-18T22:24:19.482Z,19.23
2023-01-18T22:26:47.980Z,17.70
2023-01-18T22:29:17.082Z,18.50
2023-01-18T22:31:45.467Z,19.93
2023-01-18T22:34:20.454Z,17.23
2023-01-18T22:36:49.402Z,18.90
2023-01-18T22:39:19.058Z,20.07
2023-01-18T22:41:48.284Z,20.07
2023-01-18T22:44:17.997Z,21.13
2023-01-18T22:46:48.152Z,20.13
2023-01-18T22:49:16.489Z,19.30
2023-01-18T22:51:45.268Z,19.30
2023-01-18T22:54:14.146Z,19.90
2023-01-18T22:56:43.973Z,19.63
2023-01-18T22:59:14.381Z,19.73
2023-01-18T23:01:43.273Z,20.60
2023-01-18T23:04:12.623Z,21.50
2023-01-18T23:06:46.665Z,21.50
2023-01-18T23:09:16.095Z,21.80
2023-01-18T23:11:48.280Z,20.30
2023-01-18T23:14:34.313Z,20.23
2023-01-18T23:17:20.054Z,20.50
2023-01-18T23:19:49.138Z,23.30
2023-01-18T23:22:17.589Z,25.07
2023-01-18T23:24:46.367Z,21.90
2023-01-18T23:27:16.517Z,19.30
2023-01-18T23:29:47.096Z,17.53
2023-01-18T23:32:15.444Z,19.07
2023-01-18T23:34:47.144Z,17.07
2023-01-18T23:37:15.473Z,19.77
2023-01-18T23:40:03.314Z,15.47
2023-01-18T23:42:51.112Z,17.37
2023-01-18T23:45:37.607Z,15.23
2023-01-18T23:48:27.242Z,15.27
2023-01-18T23:51:13.414Z,15.67
2023-01-18T23:53:59.569Z,16.20
2023-01-18T23:56:28.938Z,14.33
2023-01-18T23:58:59.649Z,15.73
